sensor_id;sensor_type;location;lat;lon;timestamp;P1;durP1;ratioP1;P2;durP2;ratioP2
14381;SDS011;7275;50.328;8.720;2023-02-15T00:00:32;37.57;;;13.17;;
14381;SDS011;7275;50.328;8.720;2023-02-15T00:02:59;32.63;;;12.37;;
14381;SDS011;7275;50.328;8.720;2023-02-15T00:05:28;34.27;;;12.03;;
14381;SDS011;7275;50.328;8.720;2023-02-15T00:07:57;26.53;;;10.77;;
14381;SDS011;7275;50.328;8.720;2023-02-15T00:10:25;28.37;;;11.60;;
14381;SDS011;7275;50.328;8.720;2023-02-15T00:12:52;34.03;;;11.90;;
14381;SDS011;7275;50.328;8.720;2023-02-15T00:15:20;29.60;;;11.67;;
14381;SDS011;7275;50.328;8.720;2023-02-15T00:17:47;27.87;;;11.03;;
14381;SDS011;7275;50.328;8.720;2023-02-15T00:20:15;28.03;;;11.73;;
14381;SDS011;7275;50.328;8.720;2023-02-15T00:22:45;27.50;;;11.43;;
14381;SDS011;7275;50.328;8.720;2023-02-15T00:25:13;33.13;;;11.67;;
14381;SDS011;7275;50.328;8.720;2023-02-15T00:27:41;34.40;;;11.77;;
14381;SDS011;7275;50.328;8.720;2023-02-15T00:30:09;47.03;;;11.63;;
14381;SDS011;7275;50.328;8.720;2023-02-15T00:32:37;34.40;;;10.90;;
14381;SDS011;7275;50.328;8.720;2023-02-15T00:35:04;32.33;;;11.60;;
14381;SDS011;7275;50.328;8.720;2023-02-15T00:37:33;24.90;;;11.23;;
14381;SDS011;7275;50.328;8.720;2023-02-15T00:40:02;41.57;;;11.43;;
14381;SDS011;7275;50.328;8.720;2023-02-15T00:42:30;24.47;;;11.17;;
14381;SDS011;7275;50.328;8.720;2023-02-15T00:44:58;54.20;;;12.23;;
14381;SDS011;7275;50.328;8.720;2023-02-15T00:47:25;56.70;;;10.93;;
14381;SDS011;7275;50.328;8.720;2023-02-15T00:49:53;48.13;;;10.67;;
14381;SDS011;7275;50.328;8.720;2023-02-15T00:52:21;48.80;;;10.90;;
14381;SDS011;7275;50.328;8.720;2023-02-15T00:54:48;47.90;;;10.97;;
14381;SDS011;7275;50.328;8.720;2023-02-15T00:57:17;25.43;;;10.77;;
14381;SDS011;7275;50.328;8.720;2023-02-15T00:59:45;41.57;;;10.73;;
14381;SDS011;7275;50.328;8.720;2023-02-15T01:02:12;40.23;;;10.57;;
14381;SDS011;7275;50.328;8.720;2023-02-15T01:04:40;40.17;;;9.93;;
14381;SDS011;7275;50.328;8.720;2023-02-15T01:07:07;45.60;;;10.23;;
14381;SDS011;7275;50.328;8.720;2023-02-15T01:09:35;34.90;;;10.33;;
14381;SDS011;7275;50.328;8.720;2023-02-15T01:12:02;42.93;;;10.07;;
14381;SDS011;7275;50.328;8.720;2023-02-15T01:14:31;40.03;;;10.07;;
14381;SDS011;7275;50.328;8.720;2023-02-15T01:16:59;35.83;;;9.77;;
14381;SDS011;7275;50.328;8.720;2023-02-15T01:19:27;60.13;;;10.20;;
14381;SDS011;7275;50.328;8.720;2023-02-15T01:21:54;48.07;;;9.87;;
14381;SDS011;7275;50.328;8.720;2023-02-15T01:24:22;43.80;;;10.30;;
14381;SDS011;7275;50.328;8.720;2023-02-15T01:26:49;42.27;;;10.47;;
14381;SDS011;7275;50.328;8.720;2023-02-15T01:29:17;37.50;;;10.43;;
14381;SDS011;7275;50.328;8.720;2023-02-15T01:31:46;32.70;;;10.57;;
14381;SDS011;7275;50.328;8.720;2023-02-15T01:34:14;42.17;;;11.00;;
14381;SDS011;7275;50.328;8.720;2023-02-15T01:36:41;54.53;;;10.80;;
14381;SDS011;7275;50.328;8.720;2023-02-15T01:39:09;50.10;;;11.43;;
14381;SDS011;7275;50.328;8.720;2023-02-15T01:41:36;26.23;;;10.63;;
14381;SDS011;7275;50.328;8.720;2023-02-15T01:47:08;35.53;;;10.90;;
14381;SDS011;7275;50.328;8.720;2023-02-15T01:49:37;31.03;;;10.83;;
14381;SDS011;7275;50.328;8.720;2023-02-15T01:52:07;25.17;;;11.00;;
14381;SDS011;7275;50.328;8.720;2023-02-15T01:54:37;64.57;;;11.40;;
14381;SDS011;7275;50.328;8.720;2023-02-15T01:57:10;23.27;;;12.17;;
14381;SDS011;7275;50.328;8.720;2023-02-15T01:59:40;34.17;;;13.93;;
14381;SDS011;7275;50.328;8.720;2023-02-15T02:02:14;31.93;;;11.53;;
14381;SDS011;7275;50.328;8.720;2023-02-15T02:04:47;22.60;;;12.13;;
14381;SDS011;7275;50.328;8.720;2023-02-15T02:07:17;43.70;;;12.00;;
14381;SDS011;7275;50.328;8.720;2023-02-15T02:09:48;24.83;;;11.80;;
14381;SDS011;7275;50.328;8.720;2023-02-15T02:12:16;28.60;;;11.53;;
14381;SDS011;7275;50.328;8.720;2023-02-15T02:14:45;33.43;;;11.97;;
14381;SDS011;7275;50.328;8.720;2023-02-15T02:17:16;26.27;;;11.67;;
14381;SDS011;7275;50.328;8.720;2023-02-15T02:20:12;18.63;;;12.13;;
14381;SDS011;7275;50.328;8.720;2023-02-15T02:22:52;30.37;;;12.27;;
14381;SDS011;7275;50.328;8.720;2023-02-15T02:25:39;20.20;;;12.20;;
14381;SDS011;7275;50.328;8.720;2023-02-15T02:28:29;18.03;;;11.33;;
14381;SDS011;7275;50.328;8.720;2023-02-15T02:31:28;18.80;;;10.73;;
14381;SDS011;7275;50.328;8.720;2023-02-15T02:34:09;19.57;;;12.07;;
14381;SDS011;7275;50.328;8.720;2023-02-15T02:36:45;20.43;;;11.77;;
14381;SDS011;7275;50.328;8.720;2023-02-15T02:39:21;20.03;;;12.23;;
14381;SDS011;7275;50.328;8.720;2023-02-15T02:41:55;25.13;;;12.77;;
14381;SDS011;7275;50.328;8.720;2023-02-15T02:44:28;22.40;;;12.33;;
14381;SDS011;7275;50.328;8.720;2023-02-15T02:47:02;22.87;;;12.30;;
14381;SDS011;7275;50.328;8.720;2023-02-15T02:49:34;19.10;;;12.57;;
14381;SDS011;7275;50.328;8.720;2023-02-15T02:52:04;20.30;;;12.53;;
14381;SDS011;7275;50.328;8.720;2023-02-15T02:54:34;23.10;;;13.93;;
14381;SDS011;7275;50.328;8.720;2023-02-15T02:57:03;22.90;;;13.47;;
14381;SDS011;7275;50.328;8.720;2023-02-15T02:59:36;20.77;;;12.93;;
14381;SDS011;7275;50.328;8.720;2023-02-15T03:02:09;20.03;;;12.87;;
14381;SDS011;7275;50.328;8.720;2023-02-15T03:04:42;23.30;;;13.53;;
14381;SDS011;7275;50.328;8.720;2023-02-15T03:07:15;20.13;;;13.87;;
14381;SDS011;7275;50.328;8.720;2023-02-15T03:09:49;19.53;;;13.93;;
14381;SDS011;7275;50.328;8.720;2023-02-15T03:12:19;21.13;;;14.07;;
14381;SDS011;7275;50.328;8.720;2023-02-15T03:14:50;23.10;;;15.10;;
14381;SDS011;7275;50.328;8.720;2023-02-15T03:17:21;28.30;;;15.23;;
14381;SDS011;7275;50.328;8.720;2023-02-15T03:19:52;22.70;;;14.70;;
14381;SDS011;7275;50.328;8.720;2023-02-15T03:22:25;25.87;;;14.13;;
14381;SDS011;7275;50.328;8.720;2023-02-15T03:24:56;20.90;;;14.10;;
14381;SDS011;7275;50.328;8.720;2023-02-15T03:27:27;22.33;;;14.60;;
14381;SDS011;7275;50.328;8.720;2023-02-15T03:29:59;26.43;;;15.27;;
14381;SDS011;7275;50.328;8.720;2023-02-15T03:32:29;22.13;;;14.63;;
14381;SDS011;7275;50.328;8.720;2023-02-15T03:35:01;22.00;;;15.20;;
14381;SDS011;7275;50.328;8.720;2023-02-15T03:37:30;22.20;;;14.87;;
14381;SDS011;7275;50.328;8.720;2023-02-15T03:40:04;24.53;;;15.20;;
14381;SDS011;7275;50.328;8.720;2023-02-15T03:42:53;22.30;;;14.73;;
14381;SDS011;7275;50.328;8.720;2023-02-15T03:45:29;24.03;;;15.43;;
14381;SDS011;7275;50.328;8.720;2023-02-15T03:48:00;23.57;;;15.40;;
14381;SDS011;7275;50.328;8.720;2023-02-15T03:50:31;21.67;;;15.37;;
14381;SDS011;7275;50.328;8.720;2023-02-15T03:53:20;23.83;;;16.00;;
14381;SDS011;7275;50.328;8.720;2023-02-15T03:55:53;26.73;;;16.30;;
14381;SDS011;7275;50.328;8.720;2023-02-15T03:58:21;24.30;;;15.57;;
14381;SDS011;7275;50.328;8.720;2023-02-15T04:01:10;24.03;;;14.83;;
14381;SDS011;7275;50.328;8.720;2023-02-15T04:03:59;25.57;;;16.60;;
14381;SDS011;7275;50.328;8.720;2023-02-15T04:06:31;24.53;;;16.10;;
14381;SDS011;7275;50.328;8.720;2023-02-15T04:08:59;25.93;;;15.87;;
14381;SDS011;7275;50.328;8.720;2023-02-15T04:11:44;24.13;;;16.83;;
14381;SDS011;7275;50.328;8.720;2023-02-15T04:14:11;24.43;;;16.70;;
14381;SDS011;7275;50.328;8.720;2023-02-15T04:16:53;27.20;;;16.70;;
14381;SDS011;7275;50.328;8.720;2023-02-15T04:19:21;24.33;;;16.33;;
14381;SDS011;7275;50.328;8.720;2023-02-15T04:22:07;24.27;;;15.40;;
14381;SDS011;7275;50.328;8.720;2023-02-15T04:24:52;25.10;;;16.60;;
14381;SDS011;7275;50.328;8.720;2023-02-15T04:27:39;27.40;;;17.20;;
14381;SDS011;7275;50.328;8.720;2023-02-15T04:30:08;26.67;;;17.53;;
14381;SDS011;7275;50.328;8.720;2023-02-15T04:32:37;26.13;;;17.07;;
14381;SDS011;7275;50.328;8.720;2023-02-15T04:35:05;28.33;;;17.57;;
14381;SDS011;7275;50.328;8.720;2023-02-15T04:37:34;27.27;;;17.90;;
14381;SDS011;7275;50.328;8.720;2023-02-15T04:40:02;27.40;;;18.10;;
14381;SDS011;7275;50.328;8.720;2023-02-15T04:42:31;29.50;;;18.10;;
14381;SDS011;7275;50.328;8.720;2023-02-15T04:44:58;26.07;;;17.13;;
14381;SDS011;7275;50.328;8.720;2023-02-15T04:47:26;25.77;;;16.97;;
14381;SDS011;7275;50.328;8.720;2023-02-15T04:49:54;30.40;;;17.43;;
14381;SDS011;7275;50.328;8.720;2023-02-15T04:52:23;26.27;;;17.40;;
14381;SDS011;7275;50.328;8.720;2023-02-15T04:54:52;25.30;;;16.27;;
14381;SDS011;7275;50.328;8.720;2023-02-15T04:57:20;23.93;;;16.37;;
14381;SDS011;7275;50.328;8.720;2023-02-15T04:59:48;28.33;;;17.77;;
14381;SDS011;7275;50.328;8.720;2023-02-15T05:02:15;27.83;;;18.20;;
14381;SDS011;7275;50.328;8.720;2023-02-15T05:04:43;26.43;;;17.67;;
14381;SDS011;7275;50.328;8.720;2023-02-15T05:07:10;29.13;;;18.50;;
14381;SDS011;7275;50.328;8.720;2023-02-15T05:09:38;26.97;;;17.80;;
14381;SDS011;7275;50.328;8.720;2023-02-15T05:12:07;29.17;;;18.03;;
14381;SDS011;7275;50.328;8.720;2023-02-15T05:14:34;28.07;;;18.17;;
14381;SDS011;7275;50.328;8.720;2023-02-15T05:17:02;28.80;;;16.90;;
14381;SDS011;7275;50.328;8.720;2023-02-15T05:19:31;35.63;;;17.17;;
14381;SDS011;7275;50.328;8.720;2023-02-15T05:21:59;34.27;;;17.67;;
14381;SDS011;7275;50.328;8.720;2023-02-15T05:24:26;34.57;;;17.90;;
14381;SDS011;7275;50.328;8.720;2023-02-15T05:27:13;31.53;;;16.50;;
14381;SDS011;7275;50.328;8.720;2023-02-15T05:29:58;25.43;;;16.60;;
14381;SDS011;7275;50.328;8.720;2023-02-15T05:32:26;29.83;;;18.70;;
14381;SDS011;7275;50.328;8.720;2023-02-15T05:34:54;27.03;;;17.73;;
14381;SDS011;7275;50.328;8.720;2023-02-15T05:37:21;29.63;;;17.90;;
14381;SDS011;7275;50.328;8.720;2023-02-15T05:39:49;31.90;;;18.93;;
14381;SDS011;7275;50.328;8.720;2023-02-15T05:42:18;33.20;;;18.53;;
14381;SDS011;7275;50.328;8.720;2023-02-15T05:44:45;36.23;;;19.13;;
14381;SDS011;7275;50.328;8.720;2023-02-15T05:47:13;31.90;;;17.43;;
14381;SDS011;7275;50.328;8.720;2023-02-15T05:49:41;35.10;;;18.77;;
14381;SDS011;7275;50.328;8.720;2023-02-15T05:52:08;32.50;;;18.03;;
14381;SDS011;7275;50.328;8.720;2023-02-15T05:54:38;36.47;;;18.17;;
14381;SDS011;7275;50.328;8.720;2023-02-15T05:57:05;36.70;;;18.87;;
14381;SDS011;7275;50.328;8.720;2023-02-15T05:59:34;42.27;;;18.87;;
14381;SDS011;7275;50.328;8.720;2023-02-15T06:02:02;37.57;;;19.70;;
14381;SDS011;7275;50.328;8.720;2023-02-15T06:04:30;34.80;;;18.37;;
14381;SDS011;7275;50.328;8.720;2023-02-15T06:06:57;33.00;;;18.03;;
14381;SDS011;7275;50.328;8.720;2023-02-15T06:09:25;30.40;;;18.07;;
14381;SDS011;7275;50.328;8.720;2023-02-15T06:11:52;41.07;;;18.90;;
14381;SDS011;7275;50.328;8.720;2023-02-15T06:14:20;31.90;;;18.63;;
14381;SDS011;7275;50.328;8.720;2023-02-15T06:16:49;44.90;;;19.47;;
14381;SDS011;7275;50.328;8.720;2023-02-15T06:19:16;38.30;;;18.93;;
14381;SDS011;7275;50.328;8.720;2023-02-15T06:21:45;35.27;;;19.83;;
14381;SDS011;7275;50.328;8.720;2023-02-15T06:24:12;33.97;;;19.77;;
14381;SDS011;7275;50.328;8.720;2023-02-15T06:26:40;33.37;;;18.87;;
14381;SDS011;7275;50.328;8.720;2023-02-15T06:29:07;41.80;;;21.00;;
14381;SDS011;7275;50.328;8.720;2023-02-15T06:31:35;36.67;;;21.07;;
14381;SDS011;7275;50.328;8.720;2023-02-15T06:34:04;31.40;;;18.07;;
14381;SDS011;7275;50.328;8.720;2023-02-15T06:36:32;35.30;;;18.87;;
14381;SDS011;7275;50.328;8.720;2023-02-15T06:38:59;44.27;;;18.43;;
14381;SDS011;7275;50.328;8.720;2023-02-15T06:41:28;38.77;;;18.57;;
14381;SDS011;7275;50.328;8.720;2023-02-15T06:43:55;47.17;;;19.03;;
14381;SDS011;7275;50.328;8.720;2023-02-15T06:46:23;48.93;;;18.10;;
14381;SDS011;7275;50.328;8.720;2023-02-15T06:48:51;39.30;;;19.70;;
14381;SDS011;7275;50.328;8.720;2023-02-15T06:51:20;47.17;;;19.53;;
14381;SDS011;7275;50.328;8.720;2023-02-15T06:53:48;41.37;;;19.60;;
14381;SDS011;7275;50.328;8.720;2023-02-15T06:56:15;52.03;;;20.33;;
14381;SDS011;7275;50.328;8.720;2023-02-15T06:58:43;47.27;;;19.53;;
14381;SDS011;7275;50.328;8.720;2023-02-15T07:01:12;45.30;;;20.27;;
14381;SDS011;7275;50.328;8.720;2023-02-15T07:03:39;46.63;;;19.70;;
14381;SDS011;7275;50.328;8.720;2023-02-15T07:06:07;60.13;;;19.63;;
14381;SDS011;7275;50.328;8.720;2023-02-15T07:08:38;39.57;;;19.37;;
14381;SDS011;7275;50.328;8.720;2023-02-15T07:11:06;46.60;;;19.97;;
14381;SDS011;7275;50.328;8.720;2023-02-15T07:13:52;44.03;;;20.37;;
14381;SDS011;7275;50.328;8.720;2023-02-15T07:16:19;53.43;;;21.23;;
14381;SDS011;7275;50.328;8.720;2023-02-15T07:18:48;50.17;;;22.43;;
14381;SDS011;7275;50.328;8.720;2023-02-15T07:21:16;55.13;;;22.90;;
14381;SDS011;7275;50.328;8.720;2023-02-15T07:23:45;40.23;;;21.07;;
14381;SDS011;7275;50.328;8.720;2023-02-15T07:26:13;56.27;;;22.63;;
14381;SDS011;7275;50.328;8.720;2023-02-15T07:28:40;58.93;;;22.83;;
14381;SDS011;7275;50.328;8.720;2023-02-15T07:31:08;49.00;;;23.33;;
14381;SDS011;7275;50.328;8.720;2023-02-15T07:33:35;48.87;;;20.93;;
14381;SDS011;7275;50.328;8.720;2023-02-15T07:36:03;60.53;;;22.00;;
14381;SDS011;7275;50.328;8.720;2023-02-15T07:38:32;46.57;;;21.27;;
14381;SDS011;7275;50.328;8.720;2023-02-15T07:41:03;48.20;;;21.80;;
14381;SDS011;7275;50.328;8.720;2023-02-15T07:43:33;52.57;;;20.20;;
14381;SDS011;7275;50.328;8.720;2023-02-15T07:46:03;41.40;;;19.37;;
14381;SDS011;7275;50.328;8.720;2023-02-15T07:48:33;47.47;;;20.97;;
14381;SDS011;7275;50.328;8.720;2023-02-15T07:51:02;50.67;;;22.37;;
14381;SDS011;7275;50.328;8.720;2023-02-15T07:53:31;65.63;;;21.93;;
14381;SDS011;7275;50.328;8.720;2023-02-15T07:55:59;55.83;;;22.97;;
14381;SDS011;7275;50.328;8.720;2023-02-15T07:58:29;63.57;;;20.97;;
14381;SDS011;7275;50.328;8.720;2023-02-15T08:01:11;53.27;;;22.03;;
14381;SDS011;7275;50.328;8.720;2023-02-15T08:03:39;52.77;;;21.27;;
14381;SDS011;7275;50.328;8.720;2023-02-15T08:06:06;52.37;;;21.60;;
14381;SDS011;7275;50.328;8.720;2023-02-15T08:08:36;59.43;;;20.83;;
14381;SDS011;7275;50.328;8.720;2023-02-15T08:11:04;48.37;;;21.47;;
14381;SDS011;7275;50.328;8.720;2023-02-15T08:13:52;46.33;;;20.73;;
14381;SDS011;7275;50.328;8.720;2023-02-15T08:16:22;56.20;;;21.63;;
14381;SDS011;7275;50.328;8.720;2023-02-15T08:18:51;56.33;;;21.03;;
14381;SDS011;7275;50.328;8.720;2023-02-15T08:21:19;43.43;;;20.27;;
14381;SDS011;7275;50.328;8.720;2023-02-15T08:23:50;64.47;;;21.70;;
14381;SDS011;7275;50.328;8.720;2023-02-15T08:26:18;58.93;;;20.77;;
14381;SDS011;7275;50.328;8.720;2023-02-15T08:28:46;58.27;;;21.53;;
14381;SDS011;7275;50.328;8.720;2023-02-15T08:31:16;55.07;;;21.47;;
14381;SDS011;7275;50.328;8.720;2023-02-15T08:33:45;53.17;;;21.03;;
14381;SDS011;7275;50.328;8.720;2023-02-15T08:36:15;36.80;;;19.07;;
14381;SDS011;7275;50.328;8.720;2023-02-15T08:38:45;47.50;;;19.77;;
14381;SDS011;7275;50.328;8.720;2023-02-15T08:41:13;35.17;;;19.60;;
14381;SDS011;7275;50.328;8.720;2023-02-15T08:43:42;41.77;;;20.07;;
14381;SDS011;7275;50.328;8.720;2023-02-15T08:46:11;55.53;;;21.20;;
14381;SDS011;7275;50.328;8.720;2023-02-15T08:48:40;44.87;;;20.47;;
14381;SDS011;7275;50.328;8.720;2023-02-15T08:51:08;45.57;;;20.13;;
14381;SDS011;7275;50.328;8.720;2023-02-15T08:53:38;54.77;;;19.10;;
14381;SDS011;7275;50.328;8.720;2023-02-15T08:56:06;47.93;;;18.37;;
14381;SDS011;7275;50.328;8.720;2023-02-15T08:58:34;52.83;;;19.10;;
14381;SDS011;7275;50.328;8.720;2023-02-15T09:01:07;37.60;;;19.03;;
14381;SDS011;7275;50.328;8.720;2023-02-15T09:03:36;50.73;;;18.00;;
14381;SDS011;7275;50.328;8.720;2023-02-15T09:06:06;51.50;;;18.13;;
14381;SDS011;7275;50.328;8.720;2023-02-15T09:08:34;50.43;;;17.93;;
14381;SDS011;7275;50.328;8.720;2023-02-15T09:11:05;49.93;;;18.13;;
14381;SDS011;7275;50.328;8.720;2023-02-15T09:13:35;58.73;;;19.90;;
14381;SDS011;7275;50.328;8.720;2023-02-15T09:16:04;36.57;;;18.47;;
14381;SDS011;7275;50.328;8.720;2023-02-15T09:18:33;43.93;;;18.10;;
14381;SDS011;7275;50.328;8.720;2023-02-15T09:21:04;55.23;;;19.97;;
14381;SDS011;7275;50.328;8.720;2023-02-15T09:23:34;46.20;;;18.57;;
14381;SDS011;7275;50.328;8.720;2023-02-15T09:26:03;43.00;;;17.67;;
14381;SDS011;7275;50.328;8.720;2023-02-15T09:28:32;55.30;;;17.47;;
14381;SDS011;7275;50.328;8.720;2023-02-15T09:31:06;47.27;;;18.17;;
14381;SDS011;7275;50.328;8.720;2023-02-15T09:33:36;37.53;;;17.37;;
14381;SDS011;7275;50.328;8.720;2023-02-15T09:36:14;44.60;;;17.80;;
14381;SDS011;7275;50.328;8.720;2023-02-15T09:38:42;34.53;;;16.87;;
14381;SDS011;7275;50.328;8.720;2023-02-15T09:41:23;68.37;;;18.10;;
14381;SDS011;7275;50.328;8.720;2023-02-15T09:44:07;34.87;;;16.27;;
14381;SDS011;7275;50.328;8.720;2023-02-15T09:46:48;42.73;;;16.93;;
14381;SDS011;7275;50.328;8.720;2023-02-15T09:49:28;35.93;;;16.80;;
14381;SDS011;7275;50.328;8.720;2023-02-15T09:52:13;37.30;;;15.80;;
14381;SDS011;7275;50.328;8.720;2023-02-15T09:55:01;33.73;;;15.93;;
14381;SDS011;7275;50.328;8.720;2023-02-15T09:57:44;34.90;;;15.77;;
14381;SDS011;7275;50.328;8.720;2023-02-15T10:00:18;22.53;;;15.13;;
14381;SDS011;7275;50.328;8.720;2023-02-15T10:03:00;43.57;;;15.67;;
14381;SDS011;7275;50.328;8.720;2023-02-15T10:05:43;27.63;;;14.27;;
14381;SDS011;7275;50.328;8.720;2023-02-15T10:08:29;29.53;;;14.43;;
14381;SDS011;7275;50.328;8.720;2023-02-15T10:11:09;30.80;;;14.87;;
14381;SDS011;7275;50.328;8.720;2023-02-15T10:14:03;21.60;;;14.33;;
14381;SDS011;7275;50.328;8.720;2023-02-15T10:16:49;25.30;;;14.90;;
14381;SDS011;7275;50.328;8.720;2023-02-15T10:19:24;31.37;;;15.53;;
14381;SDS011;7275;50.328;8.720;2023-02-15T10:22:04;22.23;;;15.13;;
14381;SDS011;7275;50.328;8.720;2023-02-15T10:24:49;25.97;;;13.93;;
14381;SDS011;7275;50.328;8.720;2023-02-15T10:27:26;33.80;;;15.60;;
14381;SDS011;7275;50.328;8.720;2023-02-15T10:30:01;29.97;;;14.63;;
14381;SDS011;7275;50.328;8.720;2023-02-15T10:32:36;24.57;;;14.27;;
14381;SDS011;7275;50.328;8.720;2023-02-15T10:35:14;26.17;;;14.43;;
14381;SDS011;7275;50.328;8.720;2023-02-15T10:37:52;27.13;;;14.63;;
14381;SDS011;7275;50.328;8.720;2023-02-15T10:40:32;21.30;;;14.00;;
14381;SDS011;7275;50.328;8.720;2023-02-15T10:43:08;23.07;;;13.63;;
14381;SDS011;7275;50.328;8.720;2023-02-15T10:45:49;20.67;;;14.60;;
14381;SDS011;7275;50.328;8.720;2023-02-15T10:48:33;31.83;;;14.80;;
14381;SDS011;7275;50.328;8.720;2023-02-15T10:51:12;22.13;;;15.10;;
14381;SDS011;7275;50.328;8.720;2023-02-15T10:53:54;28.20;;;16.43;;
14381;SDS011;7275;50.328;8.720;2023-02-15T10:56:34;26.20;;;16.33;;
14381;SDS011;7275;50.328;8.720;2023-02-15T10:59:13;25.27;;;15.80;;
14381;SDS011;7275;50.328;8.720;2023-02-15T11:01:53;23.73;;;15.97;;
14381;SDS011;7275;50.328;8.720;2023-02-15T11:04:32;21.10;;;15.77;;
14381;SDS011;7275;50.328;8.720;2023-02-15T11:07:08;24.23;;;16.33;;
14381;SDS011;7275;50.328;8.720;2023-02-15T11:09:43;22.90;;;16.83;;
14381;SDS011;7275;50.328;8.720;2023-02-15T11:12:16;22.13;;;16.37;;
14381;SDS011;7275;50.328;8.720;2023-02-15T11:14:49;21.60;;;15.23;;
14381;SDS011;7275;50.328;8.720;2023-02-15T11:17:23;24.90;;;15.57;;
14381;SDS011;7275;50.328;8.720;2023-02-15T11:19:58;23.87;;;15.73;;
14381;SDS011;7275;50.328;8.720;2023-02-15T11:22:30;21.10;;;14.90;;
14381;SDS011;7275;50.328;8.720;2023-02-15T11:25:01;22.93;;;15.70;;
14381;SDS011;7275;50.328;8.720;2023-02-15T11:27:43;22.67;;;16.20;;
14381;SDS011;7275;50.328;8.720;2023-02-15T11:32:46;23.80;;;17.07;;
14381;SDS011;7275;50.328;8.720;2023-02-15T11:35:22;23.60;;;16.10;;
14381;SDS011;7275;50.328;8.720;2023-02-15T11:37:57;21.83;;;16.03;;
14381;SDS011;7275;50.328;8.720;2023-02-15T11:40:32;22.73;;;16.03;;
14381;SDS011;7275;50.328;8.720;2023-02-15T11:43:05;22.30;;;16.03;;
14381;SDS011;7275;50.328;8.720;2023-02-15T11:45:38;28.03;;;18.37;;
14381;SDS011;7275;50.328;8.720;2023-02-15T11:48:09;25.17;;;18.03;;
14381;SDS011;7275;50.328;8.720;2023-02-15T11:50:39;23.83;;;17.27;;
14381;SDS011;7275;50.328;8.720;2023-02-15T11:53:10;25.27;;;18.27;;
14381;SDS011;7275;50.328;8.720;2023-02-15T11:55:41;24.60;;;17.00;;
14381;SDS011;7275;50.328;8.720;2023-02-15T11:58:13;25.47;;;17.73;;
14381;SDS011;7275;50.328;8.720;2023-02-15T12:00:51;25.53;;;17.67;;
14381;SDS011;7275;50.328;8.720;2023-02-15T12:03:24;28.07;;;18.43;;
14381;SDS011;7275;50.328;8.720;2023-02-15T12:05:58;27.40;;;18.63;;
14381;SDS011;7275;50.328;8.720;2023-02-15T12:08:33;27.53;;;18.30;;
14381;SDS011;7275;50.328;8.720;2023-02-15T12:11:06;27.63;;;19.00;;
14381;SDS011;7275;50.328;8.720;2023-02-15T12:13:47;26.33;;;18.80;;
14381;SDS011;7275;50.328;8.720;2023-02-15T12:16:22;26.60;;;18.50;;
14381;SDS011;7275;50.328;8.720;2023-02-15T12:18:50;27.50;;;18.57;;
14381;SDS011;7275;50.328;8.720;2023-02-15T12:21:24;27.20;;;17.93;;
14381;SDS011;7275;50.328;8.720;2023-02-15T12:23:54;25.70;;;17.67;;
14381;SDS011;7275;50.328;8.720;2023-02-15T12:26:25;23.70;;;17.00;;
14381;SDS011;7275;50.328;8.720;2023-02-15T12:28:56;24.70;;;17.50;;
14381;SDS011;7275;50.328;8.720;2023-02-15T12:31:28;25.80;;;17.90;;
14381;SDS011;7275;50.328;8.720;2023-02-15T12:34:01;27.63;;;18.57;;
14381;SDS011;7275;50.328;8.720;2023-02-15T12:36:32;24.30;;;17.63;;
14381;SDS011;7275;50.328;8.720;2023-02-15T12:39:19;25.30;;;18.43;;
14381;SDS011;7275;50.328;8.720;2023-02-15T12:41:57;23.50;;;17.07;;
14381;SDS011;7275;50.328;8.720;2023-02-15T12:44:29;26.43;;;17.97;;
14381;SDS011;7275;50.328;8.720;2023-02-15T12:47:00;25.93;;;18.00;;
14381;SDS011;7275;50.328;8.720;2023-02-15T12:49:30;24.00;;;16.67;;
14381;SDS011;7275;50.328;8.720;2023-02-15T12:51:59;25.23;;;16.47;;
14381;SDS011;7275;50.328;8.720;2023-02-15T12:54:29;23.80;;;16.30;;
14381;SDS011;7275;50.328;8.720;2023-02-15T12:57:12;23.70;;;17.03;;
14381;SDS011;7275;50.328;8.720;2023-02-15T12:59:50;26.13;;;17.33;;
14381;SDS011;7275;50.328;8.720;2023-02-15T13:02:22;23.70;;;16.67;;
14381;SDS011;7275;50.328;8.720;2023-02-15T13:04:52;25.60;;;17.80;;
14381;SDS011;7275;50.328;8.720;2023-02-15T13:07:21;25.93;;;17.43;;
14381;SDS011;7275;50.328;8.720;2023-02-15T13:09:49;24.47;;;17.80;;
14381;SDS011;7275;50.328;8.720;2023-02-15T13:12:18;27.77;;;18.27;;
14381;SDS011;7275;50.328;8.720;2023-02-15T13:14:51;26.73;;;18.07;;
14381;SDS011;7275;50.328;8.720;2023-02-15T13:17:23;26.93;;;18.37;;
14381;SDS011;7275;50.328;8.720;2023-02-15T13:19:56;24.73;;;17.60;;
14381;SDS011;7275;50.328;8.720;2023-02-15T13:22:27;26.07;;;18.03;;
14381;SDS011;7275;50.328;8.720;2023-02-15T13:25:01;28.00;;;19.03;;
14381;SDS011;7275;50.328;8.720;2023-02-15T13:27:34;29.50;;;19.13;;
14381;SDS011;7275;50.328;8.720;2023-02-15T13:30:10;25.23;;;18.17;;
14381;SDS011;7275;50.328;8.720;2023-02-15T13:32:46;25.53;;;17.53;;
14381;SDS011;7275;50.328;8.720;2023-02-15T13:35:17;27.07;;;19.03;;
14381;SDS011;7275;50.328;8.720;2023-02-15T13:37:53;28.77;;;19.63;;
14381;SDS011;7275;50.328;8.720;2023-02-15T13:40:31;28.67;;;19.97;;
14381;SDS011;7275;50.328;8.720;2023-02-15T13:43:05;26.83;;;18.43;;
14381;SDS011;7275;50.328;8.720;2023-02-15T13:45:51;27.53;;;19.07;;
14381;SDS011;7275;50.328;8.720;2023-02-15T13:48:31;29.03;;;19.13;;
14381;SDS011;7275;50.328;8.720;2023-02-15T13:51:18;28.90;;;18.33;;
14381;SDS011;7275;50.328;8.720;2023-02-15T13:53:56;29.10;;;19.27;;
14381;SDS011;7275;50.328;8.720;2023-02-15T13:56:36;32.23;;;20.73;;
14381;SDS011;7275;50.328;8.720;2023-02-15T13:59:19;32.13;;;20.93;;
14381;SDS011;7275;50.328;8.720;2023-02-15T14:01:58;28.67;;;19.87;;
14381;SDS011;7275;50.328;8.720;2023-02-15T14:04:40;31.73;;;20.70;;
14381;SDS011;7275;50.328;8.720;2023-02-15T14:07:23;31.33;;;20.90;;
14381;SDS011;7275;50.328;8.720;2023-02-15T14:10:03;35.60;;;22.20;;
14381;SDS011;7275;50.328;8.720;2023-02-15T14:12:50;31.13;;;20.43;;
14381;SDS011;7275;50.328;8.720;2023-02-15T14:15:28;32.63;;;21.17;;
14381;SDS011;7275;50.328;8.720;2023-02-15T14:18:07;33.17;;;21.97;;
14381;SDS011;7275;50.328;8.720;2023-02-15T14:20:51;34.83;;;22.87;;
14381;SDS011;7275;50.328;8.720;2023-02-15T14:23:31;34.10;;;22.43;;
14381;SDS011;7275;50.328;8.720;2023-02-15T14:26:10;34.63;;;23.03;;
14381;SDS011;7275;50.328;8.720;2023-02-15T14:28:43;33.77;;;22.00;;
14381;SDS011;7275;50.328;8.720;2023-02-15T14:31:16;37.47;;;23.87;;
14381;SDS011;7275;50.328;8.720;2023-02-15T14:33:54;37.63;;;24.07;;
14381;SDS011;7275;50.328;8.720;2023-02-15T14:36:24;34.17;;;22.23;;
14381;SDS011;7275;50.328;8.720;2023-02-15T14:38:56;36.43;;;23.50;;
14381;SDS011;7275;50.328;8.720;2023-02-15T14:41:35;34.60;;;22.50;;
14381;SDS011;7275;50.328;8.720;2023-02-15T14:44:09;38.77;;;24.97;;
14381;SDS011;7275;50.328;8.720;2023-02-15T14:46:45;35.03;;;22.83;;
14381;SDS011;7275;50.328;8.720;2023-02-15T14:49:19;37.47;;;24.20;;
14381;SDS011;7275;50.328;8.720;2023-02-15T14:51:59;38.43;;;24.23;;
14381;SDS011;7275;50.328;8.720;2023-02-15T14:57:26;38.93;;;25.43;;
14381;SDS011;7275;50.328;8.720;2023-02-15T15:00:03;36.97;;;23.90;;
14381;SDS011;7275;50.328;8.720;2023-02-15T15:02:57;38.17;;;24.20;;
14381;SDS011;7275;50.328;8.720;2023-02-15T15:05:29;40.00;;;25.07;;
14381;SDS011;7275;50.328;8.720;2023-02-15T15:08:01;40.13;;;26.43;;
14381;SDS011;7275;50.328;8.720;2023-02-15T15:10:38;43.03;;;26.23;;
14381;SDS011;7275;50.328;8.720;2023-02-15T15:16:24;41.37;;;25.00;;
14381;SDS011;7275;50.328;8.720;2023-02-15T15:19:10;38.37;;;24.33;;